createdAt,value
2022-10-25T00:02:00.938Z,0.57
2022-10-25T00:04:04.037Z,0.40
2022-10-25T00:06:12.357Z,0.30
2022-10-25T00:08:15.081Z,0.22
2022-10-25T00:10:20.118Z,0.50
2022-10-25T00:12:44.787Z,0.40
2022-10-25T00:15:06.321Z,0.30
2022-10-25T00:17:09.503Z,0.30
2022-10-25T00:19:30.738Z,0.40
2022-10-25T00:21:33.474Z,0.22
2022-10-25T00:23:54.448Z,0.20
2022-10-25T00:26:44.651Z,0.30
2022-10-25T00:28:47.477Z,0.30
2022-10-25T00:31:17.296Z,0.20
2022-10-25T00:33:19.921Z,0.20
2022-10-25T00:35:40.715Z,0.20
2022-10-25T00:38:01.565Z,0.30
2022-10-25T00:40:41.246Z,0.20
2022-10-25T00:43:20.657Z,0.38
2022-10-25T00:45:25.988Z,0.10
2022-10-25T00:48:06.104Z,0.20
2022-10-25T00:50:52.236Z,0.20
2022-10-25T00:53:51.322Z,0.20
2022-10-25T00:56:40.705Z,0.20
2022-10-25T00:59:20.880Z,0.10
2022-10-25T01:02:01.953Z,0.20
2022-10-25T01:04:43.766Z,0.30
2022-10-25T01:07:24.137Z,0.23
2022-10-25T01:09:30.591Z,0.60
2022-10-25T01:12:10.388Z,0.47
2022-10-25T01:15:08.917Z,0.85
2022-10-25T01:17:33.265Z,0.60
2022-10-25T01:20:17.191Z,0.65
2022-10-25T01:23:15.680Z,0.60
2022-10-25T01:25:57.759Z,0.50
2022-10-25T01:28:37.726Z,0.40
2022-10-25T01:31:07.993Z,0.20
2022-10-25T01:33:35.260Z,0.60
2022-10-25T01:36:21.024Z,0.63
2022-10-25T01:39:10.600Z,0.65
2022-10-25T01:41:54.891Z,0.57
2022-10-25T01:44:16.214Z,0.50
2022-10-25T01:46:37.299Z,0.50
2022-10-25T01:49:24.634Z,0.95
2022-10-25T01:52:04.344Z,1.08
2022-10-25T01:54:26.851Z,0.88
2022-10-25T01:57:20.889Z,1.08
2022-10-25T01:59:51.601Z,1.42
2022-10-25T02:02:36.307Z,1.13
2022-10-25T02:04:59.722Z,1.27
2022-10-25T02:07:29.551Z,1.20
2022-10-25T02:10:19.994Z,1.60
2022-10-25T02:12:30.398Z,1.38
2022-10-25T02:15:10.332Z,1.30
2022-10-25T02:17:51.640Z,2.00
2022-10-25T02:20:33.992Z,1.27
2022-10-25T02:23:15.835Z,1.23
2022-10-25T02:25:55.809Z,1.98
2022-10-25T02:28:36.349Z,1.38
2022-10-25T02:31:16.341Z,1.30
2022-10-25T02:34:14.868Z,0.93
2022-10-25T02:36:57.629Z,0.57
2022-10-25T02:39:37.588Z,0.90
2022-10-25T02:41:58.721Z,1.15
2022-10-25T02:44:01.278Z,0.80
2022-10-25T02:47:00.032Z,0.80
2022-10-25T02:49:40.005Z,0.93
2022-10-25T02:52:19.839Z,0.32
2022-10-25T02:54:40.682Z,1.10
2022-10-25T02:57:20.663Z,0.50
2022-10-25T02:59:41.886Z,1.17
2022-10-25T03:02:21.710Z,0.53
2022-10-25T03:04:24.450Z,0.75
2022-10-25T03:06:27.009Z,1.17
2022-10-25T03:08:48.102Z,0.90
2022-10-25T03:10:51.513Z,0.63
2022-10-25T03:13:12.687Z,0.70
2022-10-25T03:15:15.248Z,0.50
2022-10-25T03:17:17.901Z,0.70
2022-10-25T03:19:20.447Z,0.60
2022-10-25T03:21:22.963Z,0.70
2022-10-25T03:24:02.854Z,0.52
2022-10-25T03:26:23.882Z,0.50
2022-10-25T03:28:45.182Z,0.60
2022-10-25T03:31:29.888Z,0.47
2022-10-25T03:33:51.465Z,0.60
2022-10-25T03:35:55.159Z,0.57
2022-10-25T03:38:34.960Z,0.30
2022-10-25T03:40:55.926Z,0.65
2022-10-25T03:43:35.415Z,0.50
2022-10-25T03:46:15.396Z,0.20
2022-10-25T03:48:27.197Z,0.38
2022-10-25T03:50:29.722Z,0.20
2022-10-25T03:52:32.415Z,0.20
2022-10-25T03:54:35.491Z,0.30
2022-10-25T03:56:38.028Z,0.13
2022-10-25T03:58:40.663Z,0.30
2022-10-25T04:00:43.272Z,0.30
2022-10-25T04:02:46.012Z,0.32
2022-10-25T04:04:48.762Z,0.50
2022-10-25T04:06:51.330Z,0.20
2022-10-25T04:08:53.867Z,0.20
2022-10-25T04:10:56.460Z,0.20
2022-10-25T04:12:59.206Z,0.20
2022-10-25T04:15:01.875Z,0.10
2022-10-25T04:17:06.219Z,0.20
2022-10-25T04:19:08.719Z,0.20
2022-10-25T04:21:11.334Z,0.20
2022-10-25T04:23:13.902Z,0.10
2022-10-25T04:25:16.545Z,0.28
2022-10-25T04:27:19.148Z,0.20
2022-10-25T04:29:21.854Z,0.20
2022-10-25T04:31:24.734Z,0.20
2022-10-25T04:33:27.286Z,0.20
2022-10-25T04:35:29.892Z,0.47
2022-10-25T04:37:32.561Z,0.20
2022-10-25T04:39:35.073Z,0.50
2022-10-25T04:41:37.635Z,0.28
2022-10-25T04:43:40.269Z,0.20
2022-10-25T04:45:42.830Z,0.30
2022-10-25T04:47:45.455Z,0.50
2022-10-25T04:49:48.108Z,0.50
2022-10-25T04:53:55.386Z,1.02
2022-10-25T04:56:03.227Z,0.30
2022-10-25T04:58:05.995Z,0.38
2022-10-25T05:00:09.338Z,0.43
2022-10-25T05:02:12.628Z,0.50
2022-10-25T05:04:15.179Z,0.55
2022-10-25T05:06:25.533Z,0.85
2022-10-25T05:08:28.275Z,0.73
2022-10-25T05:10:30.831Z,1.10
2022-10-25T05:12:33.389Z,1.00
2022-10-25T05:14:36.069Z,1.25
2022-10-25T05:16:39.474Z,1.02
2022-10-25T05:18:42.995Z,1.40
2022-10-25T05:20:52.342Z,1.20
2022-10-25T05:22:55.251Z,1.30
2022-10-25T05:24:57.838Z,1.65
2022-10-25T05:27:00.426Z,1.10
2022-10-25T05:29:05.530Z,1.70
2022-10-25T05:31:15.377Z,1.75
2022-10-25T05:33:17.959Z,1.50
2022-10-25T05:35:20.586Z,1.60
2022-10-25T05:37:23.267Z,1.90
2022-10-25T05:39:26.099Z,0.90
2022-10-25T05:41:30.807Z,1.08
2022-10-25T05:43:36.095Z,1.27
2022-10-25T05:45:38.656Z,1.35
2022-10-25T05:47:41.292Z,1.10
2022-10-25T05:49:43.854Z,1.27
2022-10-25T05:51:46.468Z,1.20
2022-10-25T05:53:51.553Z,1.40
2022-10-25T05:55:54.107Z,1.65
2022-10-25T05:57:56.753Z,1.33
2022-10-25T05:59:59.270Z,1.55
2022-10-25T06:02:02.143Z,1.55
2022-10-25T06:04:05.078Z,1.95
2022-10-25T06:06:10.236Z,1.83
2022-10-25T06:08:12.823Z,1.90
2022-10-25T06:10:15.503Z,1.98
2022-10-25T06:12:18.098Z,3.55
2022-10-25T06:14:20.629Z,2.13
2022-10-25T06:16:24.263Z,1.88
2022-10-25T06:18:27.335Z,0.82
2022-10-25T06:20:30.118Z,0.80
2022-10-25T06:22:32.875Z,0.70
2022-10-25T06:24:35.462Z,0.77
2022-10-25T06:26:39.096Z,1.00
2022-10-25T06:28:41.981Z,0.80
2022-10-25T06:30:44.549Z,0.77
2022-10-25T06:32:47.389Z,0.50
2022-10-25T06:35:08.389Z,1.13
2022-10-25T06:37:11.029Z,0.82
2022-10-25T06:39:14.787Z,0.95
2022-10-25T06:41:20.337Z,1.08
2022-10-25T06:43:22.931Z,0.80
2022-10-25T06:45:25.619Z,0.88
2022-10-25T06:47:28.249Z,1.58
2022-10-25T06:49:30.952Z,1.42
2022-10-25T06:52:11.791Z,1.15
2022-10-25T06:54:32.654Z,1.48
2022-10-25T06:56:36.342Z,1.45
2022-10-25T06:58:57.920Z,2.03
2022-10-25T07:01:14.665Z,1.60
2022-10-25T07:03:17.439Z,2.00
2022-10-25T07:05:20.015Z,1.58
2022-10-25T07:07:41.325Z,2.38
2022-10-25T07:09:44.007Z,1.67
2022-10-25T07:11:46.665Z,2.17
2022-10-25T07:14:08.853Z,2.47
2022-10-25T07:18:15.787Z,2.83
2022-10-25T07:20:37.253Z,2.05
2022-10-25T07:22:39.845Z,1.60
2022-10-25T07:25:01.070Z,2.00
2022-10-25T07:27:03.888Z,1.90
2022-10-25T07:29:06.631Z,1.73
2022-10-25T07:31:46.603Z,2.60
2022-10-25T07:33:50.910Z,2.38
2022-10-25T07:36:12.352Z,2.00
2022-10-25T07:38:15.621Z,1.83
2022-10-25T07:40:36.694Z,1.63
2022-10-25T07:42:58.010Z,1.90
2022-10-25T07:45:22.283Z,1.27
2022-10-25T07:47:27.009Z,1.13
2022-10-25T07:49:29.697Z,1.48
2022-10-25T07:51:50.969Z,1.50
2022-10-25T07:53:53.927Z,1.40
2022-10-25T07:55:56.586Z,3.00
2022-10-25T07:58:17.845Z,2.40
2022-10-25T08:00:20.442Z,3.03
2022-10-25T08:02:41.732Z,1.92
2022-10-25T08:04:44.892Z,2.22
2022-10-25T08:06:47.467Z,2.15
2022-10-25T08:08:50.249Z,2.17
2022-10-25T08:11:11.567Z,1.90
2022-10-25T08:13:14.182Z,2.17
2022-10-25T08:15:17.889Z,1.90
2022-10-25T08:17:20.592Z,1.50
2022-10-25T08:19:23.196Z,2.10
2022-10-25T08:21:44.213Z,1.70
2022-10-25T08:23:46.870Z,1.45
2022-10-25T08:25:49.602Z,2.58
2022-10-25T08:27:52.356Z,1.90
2022-10-25T08:30:13.510Z,1.60
2022-10-25T08:32:53.737Z,1.58
2022-10-25T08:35:15.653Z,1.65
2022-10-25T08:37:36.639Z,1.60
2022-10-25T08:39:40.133Z,1.20
2022-10-25T08:41:56.101Z,1.45
2022-10-25T08:44:26.160Z,1.10
2022-10-25T08:46:54.601Z,1.63
2022-10-25T08:49:16.497Z,1.63
2022-10-25T08:51:43.486Z,1.60
2022-10-25T08:54:25.123Z,1.55
2022-10-25T08:57:23.703Z,1.60
2022-10-25T08:59:47.399Z,1.60
2022-10-25T09:01:56.365Z,1.40
2022-10-25T09:04:00.279Z,1.45
2022-10-25T09:06:47.861Z,1.10
2022-10-25T09:09:04.287Z,1.20
2022-10-25T09:11:21.848Z,1.48
2022-10-25T09:13:50.052Z,0.90
2022-10-25T09:16:01.614Z,0.90
2022-10-25T09:18:14.878Z,1.10
2022-10-25T09:20:20.795Z,1.25
2022-10-25T09:22:29.646Z,1.48
2022-10-25T09:24:48.005Z,1.42
2022-10-25T09:27:05.160Z,0.90
2022-10-25T09:29:24.749Z,0.93
2022-10-25T09:31:28.175Z,0.98
2022-10-25T09:33:33.191Z,0.60
2022-10-25T09:35:44.314Z,0.98
2022-10-25T09:37:53.550Z,0.82
2022-10-25T09:40:01.424Z,0.65
2022-10-25T09:42:25.886Z,1.00
2022-10-25T09:44:40.672Z,1.90
2022-10-25T09:46:51.417Z,0.95
2022-10-25T09:49:03.599Z,0.82
2022-10-25T09:51:15.023Z,0.70
2022-10-25T09:53:21.821Z,0.70
2022-10-25T09:55:37.218Z,0.70
2022-10-25T09:57:40.015Z,0.85
2022-10-25T09:59:46.667Z,0.98
2022-10-25T10:01:49.646Z,0.80
2022-10-25T10:03:55.791Z,0.45
2022-10-25T10:06:08.732Z,1.33
2022-10-25T10:08:11.447Z,1.08
2022-10-25T10:10:21.141Z,1.00
2022-10-25T10:12:31.126Z,0.80
2022-10-25T10:15:12.684Z,0.70
2022-10-25T10:17:18.648Z,0.60
2022-10-25T10:19:42.281Z,1.00
2022-10-25T10:21:51.141Z,0.80
2022-10-25T10:24:06.066Z,0.88
2022-10-25T10:26:14.334Z,0.90
2022-10-25T10:28:17.678Z,0.70
2022-10-25T10:30:29.435Z,0.50
2022-10-25T10:32:35.304Z,0.80
2022-10-25T10:34:51.261Z,0.73
2022-10-25T10:37:27.975Z,0.75
2022-10-25T10:39:49.785Z,0.45
2022-10-25T10:42:05.042Z,0.55
2022-10-25T10:44:13.228Z,0.43
2022-10-25T10:46:18.200Z,0.40
2022-10-25T10:48:24.277Z,0.77
2022-10-25T10:50:32.038Z,1.52
2022-10-25T10:52:42.636Z,0.77
2022-10-25T10:54:48.279Z,0.70
2022-10-25T10:57:02.628Z,0.93
2022-10-25T10:59:05.521Z,1.33
2022-10-25T11:01:33.540Z,0.57
2022-10-25T11:03:49.079Z,0.65
2022-10-25T11:06:02.965Z,0.90
2022-10-25T11:08:08.296Z,0.70
2022-10-25T11:10:16.753Z,0.80
2022-10-25T11:12:19.525Z,0.70
2022-10-25T11:14:22.459Z,0.70
2022-10-25T11:16:59.210Z,0.90
2022-10-25T11:19:26.368Z,1.70
2022-10-25T11:21:50.258Z,0.90
2022-10-25T11:24:15.069Z,1.30
2022-10-25T11:26:45.117Z,1.48
2022-10-25T11:29:37.180Z,1.50
2022-10-25T11:32:29.046Z,2.72
2022-10-25T11:35:00.827Z,2.63
2022-10-25T11:37:15.167Z,2.97
2022-10-25T11:39:27.688Z,3.65
2022-10-25T11:41:53.644Z,3.13
2022-10-25T11:44:05.371Z,2.78
2022-10-25T11:46:42.526Z,3.08
2022-10-25T11:49:10.077Z,3.13
2022-10-25T11:51:21.412Z,2.65
2022-10-25T11:53:35.880Z,2.70
2022-10-25T11:55:56.374Z,2.65
2022-10-25T11:58:08.265Z,1.95
2022-10-25T12:00:22.915Z,1.58
2022-10-25T12:02:56.580Z,1.33
2022-10-25T12:05:22.868Z,1.88
2022-10-25T12:07:40.257Z,1.85
2022-10-25T12:09:58.150Z,1.60
2022-10-25T12:12:08.651Z,1.00
2022-10-25T12:14:16.699Z,0.90
2022-10-25T12:16:21.587Z,1.38
2022-10-25T12:18:30.037Z,0.95
2022-10-25T12:22:46.330Z,1.65
2022-10-25T12:25:01.401Z,1.27
2022-10-25T12:27:05.807Z,0.98
2022-10-25T12:29:34.818Z,1.02
2022-10-25T12:31:43.194Z,1.27
2022-10-25T12:33:55.755Z,1.08
2022-10-25T12:36:04.059Z,1.42
2022-10-25T12:38:13.136Z,1.52
2022-10-25T12:40:22.528Z,0.90
2022-10-25T12:42:43.651Z,1.15
2022-10-25T12:45:14.424Z,1.08
2022-10-25T12:47:33.304Z,0.82
2022-10-25T12:50:08.296Z,1.08
2022-10-25T12:52:35.086Z,3.05
2022-10-25T12:55:25.968Z,2.33
2022-10-25T12:57:34.528Z,1.50
2022-10-25T13:00:10.042Z,1.10
2022-10-25T13:02:46.163Z,1.95
2022-10-25T13:05:07.066Z,1.42
2022-10-25T13:07:11.707Z,1.70
2022-10-25T13:09:16.794Z,2.35
2022-10-25T13:11:19.565Z,2.03
2022-10-25T13:13:33.880Z,1.45
2022-10-25T13:15:59.210Z,1.77
2022-10-25T13:18:05.966Z,1.98
2022-10-25T13:20:20.734Z,1.00
2022-10-25T13:22:46.656Z,1.30
2022-10-25T13:24:49.211Z,1.05
2022-10-25T13:27:16.277Z,1.50
2022-10-25T13:30:02.678Z,1.67
2022-10-25T13:32:17.890Z,1.08
2022-10-25T13:34:28.634Z,1.40
2022-10-25T13:36:51.814Z,1.33
2022-10-25T13:39:05.508Z,1.45
2022-10-25T13:41:18.774Z,1.13
2022-10-25T13:43:22.061Z,1.30
2022-10-25T13:45:40.582Z,1.58
2022-10-25T13:47:47.330Z,0.95
2022-10-25T13:49:49.974Z,1.38
2022-10-25T13:51:56.471Z,1.30
2022-10-25T13:54:06.112Z,1.10
2022-10-25T13:56:32.455Z,1.02
2022-10-25T13:58:40.910Z,1.02
2022-10-25T14:00:48.128Z,2.33
2022-10-25T14:03:08.668Z,1.15
2022-10-25T14:05:11.941Z,1.83
2022-10-25T14:07:46.112Z,1.50
2022-10-25T14:09:53.514Z,1.10
2022-10-25T14:12:08.980Z,0.98
2022-10-25T14:14:32.158Z,1.00
2022-10-25T14:16:40.498Z,1.02
2022-10-25T14:18:43.829Z,0.50
2022-10-25T14:20:49.533Z,1.00
2022-10-25T14:22:55.620Z,1.00
2022-10-25T14:25:00.937Z,1.08
2022-10-25T14:27:03.567Z,1.02
2022-10-25T14:29:14.632Z,0.82
2022-10-25T14:31:21.855Z,1.15
2022-10-25T14:33:36.758Z,0.70
2022-10-25T14:35:53.788Z,0.68
2022-10-25T14:37:56.388Z,0.95
2022-10-25T14:39:59.026Z,1.60
2022-10-25T14:42:03.127Z,0.90
2022-10-25T14:44:21.737Z,0.90
2022-10-25T14:46:26.850Z,1.20
2022-10-25T14:48:32.610Z,1.08
2022-10-25T14:50:35.616Z,0.70
2022-10-25T14:52:38.309Z,0.90
2022-10-25T14:54:42.145Z,1.30
2022-10-25T14:56:51.163Z,1.15
2022-10-25T14:58:55.275Z,0.88
2022-10-25T15:01:01.924Z,0.90
2022-10-25T15:03:06.379Z,0.82
2022-10-25T15:05:18.673Z,1.20
2022-10-25T15:07:30.632Z,1.00
2022-10-25T15:12:11.757Z,1.33
2022-10-25T15:14:22.117Z,1.27
2022-10-25T15:16:36.767Z,1.35
2022-10-25T15:18:39.352Z,1.63
2022-10-25T15:20:41.919Z,1.35
2022-10-25T15:22:49.916Z,2.03
2022-10-25T15:24:52.826Z,1.55
2022-10-25T15:27:01.101Z,1.80
2022-10-25T15:29:03.744Z,1.60
2022-10-25T15:31:07.505Z,1.33
2022-10-25T15:33:13.990Z,1.77
2022-10-25T15:35:24.777Z,1.77
2022-10-25T15:37:29.838Z,1.40
2022-10-25T15:39:33.110Z,0.85
2022-10-25T15:41:35.765Z,0.90
2022-10-25T15:43:38.374Z,0.98
2022-10-25T15:45:41.410Z,0.98
2022-10-25T15:47:47.555Z,0.80
2022-10-25T15:49:53.581Z,1.27
2022-10-25T15:51:56.301Z,1.00
2022-10-25T15:53:59.008Z,1.10
2022-10-25T15:56:02.874Z,0.70
2022-10-25T15:58:09.689Z,1.33
2022-10-25T16:00:15.420Z,0.98
2022-10-25T16:02:26.390Z,0.95
2022-10-25T16:04:29.248Z,0.90
2022-10-25T16:06:31.832Z,0.70
2022-10-25T16:10:42.428Z,0.77
2022-10-25T16:12:48.965Z,0.70
2022-10-25T16:14:53.140Z,1.08
2022-10-25T16:16:58.448Z,0.82
2022-10-25T16:19:03.572Z,0.52
2022-10-25T16:21:06.369Z,1.20
2022-10-25T16:23:08.967Z,1.08
2022-10-25T16:25:12.627Z,0.65
2022-10-25T16:27:15.350Z,0.82
2022-10-25T16:29:24.476Z,0.98
2022-10-25T16:31:27.221Z,0.93
2022-10-25T16:33:29.929Z,0.77
2022-10-25T16:35:32.453Z,0.93
2022-10-25T16:37:35.077Z,1.20
2022-10-25T16:39:37.589Z,0.70
2022-10-25T16:41:43.347Z,0.70
2022-10-25T16:43:49.119Z,1.10
2022-10-25T16:45:51.842Z,1.27
2022-10-25T16:47:58.038Z,0.82
2022-10-25T16:50:00.662Z,0.82
2022-10-25T16:52:05.636Z,0.82
2022-10-25T16:54:08.769Z,0.85
2022-10-25T16:56:11.870Z,0.80
2022-10-25T16:58:14.990Z,0.82
2022-10-25T17:00:17.850Z,0.57
2022-10-25T17:02:22.774Z,0.60
2022-10-25T17:04:26.890Z,0.55
2022-10-25T17:06:40.664Z,0.77
2022-10-25T17:08:45.007Z,1.00
2022-10-25T17:10:47.700Z,1.00
2022-10-25T17:13:01.706Z,1.10
2022-10-25T17:15:04.642Z,1.05
2022-10-25T17:17:07.303Z,1.05
2022-10-25T17:19:11.205Z,1.10
2022-10-25T17:21:16.310Z,1.08
2022-10-25T17:23:19.359Z,1.30
2022-10-25T17:25:21.978Z,0.90
2022-10-25T17:27:24.577Z,0.88
2022-10-25T17:29:27.222Z,1.10
2022-10-25T17:31:30.115Z,1.02
2022-10-25T17:33:32.783Z,0.75
2022-10-25T17:35:35.338Z,0.80
2022-10-25T17:37:42.831Z,0.70
2022-10-25T17:39:45.393Z,0.73
2022-10-25T17:41:47.995Z,1.23
2022-10-25T17:43:53.228Z,1.00
2022-10-25T17:46:04.330Z,0.75
2022-10-25T17:48:07.304Z,0.47
2022-10-25T17:50:10.970Z,0.80
2022-10-25T17:52:13.467Z,1.00
2022-10-25T17:54:18.016Z,0.80
2022-10-25T17:56:22.182Z,0.80
2022-10-25T17:58:25.393Z,0.50
2022-10-25T18:00:28.052Z,0.38
2022-10-25T18:02:30.759Z,0.90
2022-10-25T18:04:52.964Z,0.65
2022-10-25T18:06:56.051Z,0.60
2022-10-25T18:09:00.217Z,0.65
2022-10-25T18:11:29.000Z,0.80
2022-10-25T18:13:31.556Z,0.68
2022-10-25T18:15:35.874Z,1.10
2022-10-25T18:17:39.774Z,0.80
2022-10-25T18:19:42.430Z,0.65
2022-10-25T18:21:45.064Z,0.98
2022-10-25T18:23:47.600Z,0.95
2022-10-25T18:25:52.090Z,1.20
2022-10-25T18:27:54.716Z,1.15
2022-10-25T18:29:57.241Z,1.65
2022-10-25T18:31:59.921Z,1.40
2022-10-25T18:34:04.087Z,1.65
2022-10-25T18:36:19.458Z,1.30
2022-10-25T18:38:22.725Z,1.45
2022-10-25T18:40:25.485Z,1.58
2022-10-25T18:42:28.268Z,1.45
2022-10-25T18:44:31.153Z,1.60
2022-10-25T18:46:34.077Z,1.38
2022-10-25T18:48:37.100Z,1.02
2022-10-25T18:50:41.867Z,1.02
2022-10-25T18:52:45.284Z,1.30
2022-10-25T18:54:47.836Z,1.35
2022-10-25T18:56:50.433Z,1.05
2022-10-25T18:58:55.219Z,1.00
2022-10-25T19:01:05.283Z,0.88
2022-10-25T19:03:08.084Z,0.70
2022-10-25T19:05:10.995Z,1.00
2022-10-25T19:07:13.582Z,0.82
2022-10-25T19:09:16.181Z,0.75
2022-10-25T19:11:19.139Z,0.60
2022-10-25T19:13:22.376Z,0.70
2022-10-25T19:15:24.985Z,0.90
2022-10-25T19:17:27.630Z,0.80
2022-10-25T19:19:30.719Z,1.10
2022-10-25T19:21:34.298Z,0.70
2022-10-25T19:23:39.356Z,0.93
2022-10-25T19:25:42.281Z,0.98
2022-10-25T19:27:45.180Z,0.80
2022-10-25T19:29:49.421Z,0.95
2022-10-25T19:31:52.244Z,1.83
2022-10-25T19:33:58.469Z,1.38
2022-10-25T19:36:09.403Z,1.10
2022-10-25T19:38:12.078Z,1.40
2022-10-25T19:40:14.906Z,1.30
2022-10-25T19:42:17.469Z,0.80
2022-10-25T19:44:20.168Z,0.93
2022-10-25T19:46:22.742Z,1.50
2022-10-25T19:48:26.262Z,1.20
2022-10-25T19:50:29.019Z,2.10
2022-10-25T19:52:34.578Z,1.20
2022-10-25T19:54:37.157Z,1.20
2022-10-25T19:56:39.666Z,1.42
2022-10-25T19:58:42.878Z,1.13
2022-10-25T20:00:45.623Z,1.52
2022-10-25T20:02:48.412Z,1.20
2022-10-25T20:04:51.012Z,0.90
2022-10-25T20:06:53.606Z,1.10
2022-10-25T20:08:57.540Z,1.38
2022-10-25T20:11:01.751Z,1.20
2022-10-25T20:13:04.871Z,1.00
2022-10-25T20:15:08.031Z,1.58
2022-10-25T20:17:12.647Z,1.23
2022-10-25T20:19:15.277Z,1.10
2022-10-25T20:21:20.381Z,1.10
2022-10-25T20:23:22.891Z,1.55
2022-10-25T20:25:27.137Z,1.20
2022-10-25T20:27:31.386Z,1.35
2022-10-25T20:29:34.551Z,1.27
2022-10-25T20:31:37.431Z,0.85
2022-10-25T20:33:40.629Z,0.90
2022-10-25T20:35:47.198Z,1.10
2022-10-25T20:37:49.975Z,0.70
2022-10-25T20:39:52.719Z,0.82
2022-10-25T20:41:55.227Z,0.60
2022-10-25T20:44:00.681Z,0.50
2022-10-25T20:46:04.245Z,0.70
2022-10-25T20:48:06.904Z,0.90
2022-10-25T20:50:09.844Z,1.00
2022-10-25T20:52:12.359Z,0.75
2022-10-25T20:54:15.386Z,0.57
2022-10-25T20:56:19.512Z,0.68
2022-10-25T20:58:23.326Z,0.82
2022-10-25T21:00:25.853Z,0.55
2022-10-25T21:02:28.694Z,0.60
2022-10-25T21:04:54.006Z,0.65
2022-10-25T21:06:53.932Z,0.82
2022-10-25T21:08:56.513Z,0.80
2022-10-25T21:11:04.704Z,0.57
2022-10-25T21:13:08.263Z,0.35
2022-10-25T21:15:12.261Z,0.80
2022-10-25T21:17:15.521Z,0.70
2022-10-25T21:19:18.370Z,0.63
2022-10-25T21:21:21.699Z,0.65
2022-10-25T21:23:24.505Z,0.60
2022-10-25T21:25:27.258Z,0.73
2022-10-25T21:27:30.072Z,0.70
2022-10-25T21:29:32.677Z,0.60
2022-10-25T21:31:35.318Z,0.50
2022-10-25T21:33:38.821Z,0.65
2022-10-25T21:35:41.383Z,0.77
2022-10-25T21:37:46.836Z,0.55
2022-10-25T21:39:51.657Z,0.60
2022-10-25T21:41:54.303Z,0.45
2022-10-25T21:43:58.341Z,0.52
2022-10-25T21:46:04.774Z,0.52
2022-10-25T21:48:07.534Z,0.55
2022-10-25T21:50:10.319Z,0.70
2022-10-25T21:52:12.862Z,0.85
2022-10-25T21:54:15.436Z,0.65
2022-10-25T21:56:20.111Z,0.90
2022-10-25T21:58:22.674Z,0.80
2022-10-25T22:00:25.209Z,0.55
2022-10-25T22:02:27.932Z,0.80
2022-10-25T22:04:30.784Z,0.60
2022-10-25T22:06:33.386Z,0.88
2022-10-25T22:08:36.089Z,0.93
2022-10-25T22:10:38.682Z,0.77
2022-10-25T22:12:41.258Z,0.50
2022-10-25T22:14:43.793Z,0.63
2022-10-25T22:16:46.474Z,0.55
2022-10-25T22:18:54.965Z,0.77
2022-10-25T22:21:03.376Z,0.77
2022-10-25T22:23:05.924Z,0.55
2022-10-25T22:25:08.727Z,0.70
2022-10-25T22:27:11.240Z,0.60
2022-10-25T22:29:15.135Z,0.82
2022-10-25T22:31:18.704Z,0.63
2022-10-25T22:33:21.355Z,0.40
2022-10-25T22:35:24.035Z,0.70
2022-10-25T22:37:26.521Z,0.75
2022-10-25T22:39:29.082Z,0.40
2022-10-25T22:41:32.159Z,0.60
2022-10-25T22:43:36.162Z,0.57
2022-10-25T22:45:38.684Z,0.30
2022-10-25T22:47:41.231Z,0.60
2022-10-25T22:49:43.831Z,0.30
2022-10-25T22:51:46.487Z,0.20
2022-10-25T22:53:49.202Z,0.60
2022-10-25T22:55:59.762Z,0.40
2022-10-25T22:58:02.242Z,0.60
2022-10-25T23:00:05.373Z,0.40
2022-10-25T23:02:07.996Z,0.30
2022-10-25T23:04:10.898Z,0.50
2022-10-25T23:06:15.800Z,0.70
2022-10-25T23:08:18.285Z,0.50
2022-10-25T23:10:20.806Z,0.30
2022-10-25T23:12:23.397Z,0.40
2022-10-25T23:14:25.933Z,0.50
2022-10-25T23:16:29.477Z,0.60
2022-10-25T23:18:32.738Z,0.60
2022-10-25T23:20:35.247Z,0.55
2022-10-25T23:22:37.816Z,0.30
2022-10-25T23:24:40.421Z,0.40
2022-10-25T23:26:43.210Z,0.85
2022-10-25T23:28:46.044Z,0.50
2022-10-25T23:30:48.605Z,0.52
2022-10-25T23:32:52.242Z,0.40
2022-10-25T23:34:57.024Z,0.32
2022-10-25T23:36:59.787Z,1.08
2022-10-25T23:39:02.346Z,0.65
2022-10-25T23:41:05.926Z,0.50
2022-10-25T23:43:08.896Z,0.60
2022-10-25T23:45:11.788Z,0.60
2022-10-25T23:47:14.293Z,0.68
2022-10-25T23:49:16.854Z,0.45
2022-10-25T23:51:19.449Z,0.40
2022-10-25T23:53:22.171Z,0.90
2022-10-25T23:55:24.698Z,0.73
2022-10-25T23:57:27.675Z,0.40
2022-10-25T23:59:30.222Z,0.70
